Startpagina
METAR-TAF:

METAR-TAF

Vliegvelden :

Dubai, Verenigde Arabische Emiraten

Dubai International Airport

breedte: 25-15-10N, lengte: 055-21-52E, hoogte: 8 m

Actueel weer

Dit bericht is 7 minuten geleden gemaakt, om 00:00 UTC
Wind 6 kt uit het zuidzuidwesten
Temperatuur 31°C
Vochtigheid 75%
Druk 996 hPa
Zicht 10 km of meer
geen wolken onder 1500 m en geen cumulonimbus

METAR: OMDB 280000Z 20006KT CAVOK 31/26 Q0996 NOSIG

Tijdstip: 04:07 (00:07 UTC)

Verwachting

Dit bericht is 1 uur en het 15 minuten geleden gemaakt, om 22:52 UTC
Verwachting geldig van 28 om 00 UTC tot 29 om 06 UTC
Wind 5 kt uit het zuidzuidoosten
Zicht: 8000 m
Kans 30%
van 28 om 01 UTC tot 28 om 03 UTC
Zicht: 4000 m
Heiigheid
Wijzigt naar
van 28 om 07 UTC tot 28 om 09 UTC
Wind 10 kt uit het noordnoordwesten
Wijzigt naar
van 28 om 14 UTC tot 28 om 16 UTC
Wind 5 kt uit het oostzuidoosten

TAF: OMDB 272252Z 2800/2906 16005KT 8000 NSC PROB30 2801/2803 4000 HZ BECMG 2807/2809 34010KT BECMG 2814/2816 11005KT

Waarnemingen en weersverwachtingen van meer dan 4000 vliegvelden (METAR en TAF).

De beschikbare stations zijn de gele en rode punten op de kaart.

Ga met uw muis naar het station om de naam te zien.

Klik dan om waarnemingen en weersverwachtingen te zien.

kaart wijzigen: klik op de groene knoppen met een zwart kruis om in te zoomen, op de groene knop met een streepje om uit te zoomen of op de groene pijlen voor aangrenzende kaarten.


METAR-TAF: